sensor_id;sensor_type;location;lat;lon;timestamp;P1;durP1;ratioP1;P2;durP2;ratioP2
20621;SDS011;10470;42.670;23.354;2023-03-30T00:02:20;2.53;;;1.90;;
20621;SDS011;10470;42.670;23.354;2023-03-30T00:04:47;5.73;;;2.33;;
20621;SDS011;10470;42.670;23.354;2023-03-30T00:07:14;2.50;;;1.90;;
20621;SDS011;10470;42.670;23.354;2023-03-30T00:09:39;2.20;;;2.00;;
20621;SDS011;10470;42.670;23.354;2023-03-30T00:12:11;3.27;;;1.70;;
20621;SDS011;10470;42.670;23.354;2023-03-30T00:14:37;1.83;;;1.60;;
20621;SDS011;10470;42.670;23.354;2023-03-30T00:17:04;3.93;;;1.80;;
20621;SDS011;10470;42.670;23.354;2023-03-30T00:19:31;1.73;;;1.63;;
20621;SDS011;10470;42.670;23.354;2023-03-30T00:21:56;2.67;;;1.90;;
20621;SDS011;10470;42.670;23.354;2023-03-30T00:24:22;7.20;;;2.20;;
20621;SDS011;10470;42.670;23.354;2023-03-30T00:26:47;2.07;;;1.70;;
20621;SDS011;10470;42.670;23.354;2023-03-30T00:29:13;2.63;;;1.60;;
20621;SDS011;10470;42.670;23.354;2023-03-30T00:31:38;1.97;;;1.77;;
20621;SDS011;10470;42.670;23.354;2023-03-30T00:34:04;2.63;;;1.77;;
20621;SDS011;10470;42.670;23.354;2023-03-30T00:36:29;2.23;;;1.80;;
20621;SDS011;10470;42.670;23.354;2023-03-30T00:39:01;2.03;;;1.43;;
20621;SDS011;10470;42.670;23.354;2023-03-30T00:41:31;1.90;;;1.70;;
20621;SDS011;10470;42.670;23.354;2023-03-30T00:44:01;4.43;;;2.10;;
20621;SDS011;10470;42.670;23.354;2023-03-30T00:46:30;2.17;;;1.97;;
20621;SDS011;10470;42.670;23.354;2023-03-30T00:48:57;2.30;;;1.27;;
20621;SDS011;10470;42.670;23.354;2023-03-30T00:51:28;2.93;;;2.10;;
20621;SDS011;10470;42.670;23.354;2023-03-30T00:53:55;1.87;;;1.60;;
20621;SDS011;10470;42.670;23.354;2023-03-30T00:56:28;2.53;;;2.03;;
20621;SDS011;10470;42.670;23.354;2023-03-30T00:58:54;1.90;;;1.67;;
20621;SDS011;10470;42.670;23.354;2023-03-30T01:01:20;7.30;;;2.20;;
20621;SDS011;10470;42.670;23.354;2023-03-30T01:03:54;5.43;;;2.13;;
20621;SDS011;10470;42.670;23.354;2023-03-30T01:06:23;3.20;;;1.97;;
20621;SDS011;10470;42.670;23.354;2023-03-30T01:08:53;4.53;;;1.90;;
20621;SDS011;10470;42.670;23.354;2023-03-30T01:11:19;2.73;;;2.03;;
20621;SDS011;10470;42.670;23.354;2023-03-30T01:13:46;2.87;;;1.83;;
20621;SDS011;10470;42.670;23.354;2023-03-30T01:26:55;2.63;;;1.97;;
20621;SDS011;10470;42.670;23.354;2023-03-30T01:32:42;4.00;;;2.10;;
20621;SDS011;10470;42.670;23.354;2023-03-30T01:35:16;2.90;;;1.93;;
20621;SDS011;10470;42.670;23.354;2023-03-30T01:40:56;2.10;;;1.90;;
20621;SDS011;10470;42.670;23.354;2023-03-30T01:43:26;2.97;;;2.20;;
20621;SDS011;10470;42.670;23.354;2023-03-30T01:45:53;2.80;;;2.20;;
20621;SDS011;10470;42.670;23.354;2023-03-30T01:51:08;3.90;;;2.27;;
20621;SDS011;10470;42.670;23.354;2023-03-30T01:56:50;2.30;;;2.00;;
20621;SDS011;10470;42.670;23.354;2023-03-30T01:59:35;5.27;;;2.30;;
20621;SDS011;10470;42.670;23.354;2023-03-30T02:02:01;5.23;;;1.87;;
20621;SDS011;10470;42.670;23.354;2023-03-30T02:04:32;3.87;;;2.30;;
20621;SDS011;10470;42.670;23.354;2023-03-30T02:07:10;3.37;;;2.00;;
20621;SDS011;10470;42.670;23.354;2023-03-30T02:09:40;2.17;;;1.97;;
20621;SDS011;10470;42.670;23.354;2023-03-30T02:12:09;2.73;;;2.30;;
20621;SDS011;10470;42.670;23.354;2023-03-30T02:14:36;2.80;;;2.00;;
20621;SDS011;10470;42.670;23.354;2023-03-30T02:20:02;3.53;;;2.10;;
20621;SDS011;10470;42.670;23.354;2023-03-30T02:22:32;4.27;;;2.07;;
20621;SDS011;10470;42.670;23.354;2023-03-30T02:24:58;2.57;;;1.90;;
20621;SDS011;10470;42.670;23.354;2023-03-30T02:27:24;2.43;;;2.03;;
20621;SDS011;10470;42.670;23.354;2023-03-30T02:29:51;2.03;;;1.83;;
20621;SDS011;10470;42.670;23.354;2023-03-30T02:32:20;2.40;;;2.20;;
20621;SDS011;10470;42.670;23.354;2023-03-30T02:43:02;2.07;;;1.67;;
20621;SDS011;10470;42.670;23.354;2023-03-30T02:57:24;3.13;;;2.43;;
20621;SDS011;10470;42.670;23.354;2023-03-30T03:02:27;2.40;;;1.97;;
20621;SDS011;10470;42.670;23.354;2023-03-30T03:04:58;3.77;;;2.20;;
20621;SDS011;10470;42.670;23.354;2023-03-30T03:07:28;2.87;;;2.57;;
20621;SDS011;10470;42.670;23.354;2023-03-30T03:09:56;3.67;;;2.50;;
20621;SDS011;10470;42.670;23.354;2023-03-30T03:12:22;2.93;;;2.60;;
20621;SDS011;10470;42.670;23.354;2023-03-30T03:14:47;3.40;;;2.63;;
20621;SDS011;10470;42.670;23.354;2023-03-30T03:17:13;2.20;;;2.00;;
20621;SDS011;10470;42.670;23.354;2023-03-30T03:19:40;3.57;;;2.63;;
20621;SDS011;10470;42.670;23.354;2023-03-30T03:22:06;3.07;;;2.67;;
20621;SDS011;10470;42.670;23.354;2023-03-30T03:24:31;3.37;;;2.67;;
20621;SDS011;10470;42.670;23.354;2023-03-30T03:26:58;3.10;;;2.60;;
20621;SDS011;10470;42.670;23.354;2023-03-30T03:29:23;3.70;;;2.83;;
20621;SDS011;10470;42.670;23.354;2023-03-30T03:31:48;2.90;;;2.50;;
20621;SDS011;10470;42.670;23.354;2023-03-30T03:34:14;3.10;;;2.80;;
20621;SDS011;10470;42.670;23.354;2023-03-30T03:36:39;3.80;;;2.80;;
20621;SDS011;10470;42.670;23.354;2023-03-30T03:39:07;4.00;;;3.00;;
20621;SDS011;10470;42.670;23.354;2023-03-30T03:41:33;4.07;;;2.87;;
20621;SDS011;10470;42.670;23.354;2023-03-30T03:43:58;4.77;;;2.83;;
20621;SDS011;10470;42.670;23.354;2023-03-30T03:46:23;3.77;;;2.90;;
20621;SDS011;10470;42.670;23.354;2023-03-30T03:48:49;3.93;;;3.17;;
20621;SDS011;10470;42.670;23.354;2023-03-30T03:51:14;4.03;;;3.10;;
20621;SDS011;10470;42.670;23.354;2023-03-30T03:53:40;5.73;;;3.60;;
20621;SDS011;10470;42.670;23.354;2023-03-30T03:56:05;6.57;;;3.23;;
20621;SDS011;10470;42.670;23.354;2023-03-30T03:58:31;3.97;;;3.43;;
20621;SDS011;10470;42.670;23.354;2023-03-30T04:00:57;5.07;;;4.00;;
20621;SDS011;10470;42.670;23.354;2023-03-30T04:03:23;6.73;;;3.70;;
20621;SDS011;10470;42.670;23.354;2023-03-30T04:05:49;5.20;;;3.97;;
20621;SDS011;10470;42.670;23.354;2023-03-30T04:08:15;3.97;;;3.57;;
20621;SDS011;10470;42.670;23.354;2023-03-30T04:10:42;6.53;;;4.10;;
20621;SDS011;10470;42.670;23.354;2023-03-30T04:13:07;4.67;;;4.20;;
20621;SDS011;10470;42.670;23.354;2023-03-30T04:15:33;5.37;;;4.13;;
20621;SDS011;10470;42.670;23.354;2023-03-30T04:17:58;4.07;;;3.67;;
20621;SDS011;10470;42.670;23.354;2023-03-30T04:20:26;5.27;;;3.90;;
20621;SDS011;10470;42.670;23.354;2023-03-30T04:22:53;4.63;;;4.23;;
20621;SDS011;10470;42.670;23.354;2023-03-30T04:25:20;5.70;;;3.87;;
20621;SDS011;10470;42.670;23.354;2023-03-30T04:27:50;4.30;;;3.90;;
20621;SDS011;10470;42.670;23.354;2023-03-30T04:30:17;5.33;;;3.97;;
20621;SDS011;10470;42.670;23.354;2023-03-30T04:32:44;5.00;;;4.50;;
20621;SDS011;10470;42.670;23.354;2023-03-30T04:35:11;5.03;;;4.43;;
20621;SDS011;10470;42.670;23.354;2023-03-30T04:37:38;8.40;;;5.40;;
20621;SDS011;10470;42.670;23.354;2023-03-30T04:40:06;5.80;;;4.17;;
20621;SDS011;10470;42.670;23.354;2023-03-30T04:42:37;6.57;;;4.90;;
20621;SDS011;10470;42.670;23.354;2023-03-30T04:45:03;10.60;;;7.13;;
20621;SDS011;10470;42.670;23.354;2023-03-30T04:47:30;7.57;;;5.87;;
20621;SDS011;10470;42.670;23.354;2023-03-30T04:49:56;6.30;;;5.57;;
20621;SDS011;10470;42.670;23.354;2023-03-30T04:52:21;5.00;;;4.50;;
20621;SDS011;10470;42.670;23.354;2023-03-30T04:54:47;6.57;;;5.10;;
20621;SDS011;10470;42.670;23.354;2023-03-30T04:57:13;4.80;;;4.30;;
20621;SDS011;10470;42.670;23.354;2023-03-30T04:59:40;6.53;;;4.00;;
20621;SDS011;10470;42.670;23.354;2023-03-30T05:02:07;9.07;;;5.17;;
20621;SDS011;10470;42.670;23.354;2023-03-30T05:04:33;10.57;;;5.77;;
20621;SDS011;10470;42.670;23.354;2023-03-30T05:06:58;13.13;;;5.50;;
20621;SDS011;10470;42.670;23.354;2023-03-30T05:09:24;8.30;;;6.07;;
20621;SDS011;10470;42.670;23.354;2023-03-30T05:11:49;7.40;;;4.87;;
20621;SDS011;10470;42.670;23.354;2023-03-30T05:14:15;6.60;;;4.57;;
20621;SDS011;10470;42.670;23.354;2023-03-30T05:16:41;8.47;;;4.00;;
20621;SDS011;10470;42.670;23.354;2023-03-30T05:19:06;7.90;;;4.77;;
20621;SDS011;10470;42.670;23.354;2023-03-30T05:21:33;7.57;;;4.10;;
20621;SDS011;10470;42.670;23.354;2023-03-30T05:23:58;7.53;;;4.33;;
20621;SDS011;10470;42.670;23.354;2023-03-30T05:26:24;5.30;;;4.10;;
20621;SDS011;10470;42.670;23.354;2023-03-30T05:28:50;7.50;;;4.80;;
20621;SDS011;10470;42.670;23.354;2023-03-30T05:31:16;12.77;;;7.60;;
20621;SDS011;10470;42.670;23.354;2023-03-30T05:33:42;10.87;;;6.30;;
20621;SDS011;10470;42.670;23.354;2023-03-30T05:36:07;9.37;;;6.27;;
20621;SDS011;10470;42.670;23.354;2023-03-30T05:38:33;11.10;;;6.97;;
20621;SDS011;10470;42.670;23.354;2023-03-30T05:41:00;12.43;;;6.93;;
20621;SDS011;10470;42.670;23.354;2023-03-30T05:43:26;9.23;;;6.00;;
20621;SDS011;10470;42.670;23.354;2023-03-30T05:45:51;11.47;;;5.43;;
20621;SDS011;10470;42.670;23.354;2023-03-30T05:48:17;9.13;;;5.50;;
20621;SDS011;10470;42.670;23.354;2023-03-30T05:50:43;9.00;;;6.07;;
20621;SDS011;10470;42.670;23.354;2023-03-30T05:53:08;11.83;;;5.70;;
20621;SDS011;10470;42.670;23.354;2023-03-30T05:55:34;8.53;;;5.30;;
20621;SDS011;10470;42.670;23.354;2023-03-30T05:57:59;9.70;;;6.97;;
20621;SDS011;10470;42.670;23.354;2023-03-30T06:00:24;14.33;;;6.73;;
20621;SDS011;10470;42.670;23.354;2023-03-30T06:02:50;9.27;;;5.27;;
20621;SDS011;10470;42.670;23.354;2023-03-30T06:05:16;10.23;;;6.90;;
20621;SDS011;10470;42.670;23.354;2023-03-30T06:07:42;9.57;;;6.37;;
20621;SDS011;10470;42.670;23.354;2023-03-30T06:10:09;8.00;;;5.57;;
20621;SDS011;10470;42.670;23.354;2023-03-30T06:12:35;16.27;;;8.10;;
20621;SDS011;10470;42.670;23.354;2023-03-30T06:15:03;10.77;;;6.67;;
20621;SDS011;10470;42.670;23.354;2023-03-30T06:17:29;14.53;;;8.50;;
20621;SDS011;10470;42.670;23.354;2023-03-30T06:19:55;13.50;;;7.83;;
20621;SDS011;10470;42.670;23.354;2023-03-30T06:22:21;12.57;;;7.23;;
20621;SDS011;10470;42.670;23.354;2023-03-30T06:24:46;12.63;;;6.80;;
20621;SDS011;10470;42.670;23.354;2023-03-30T06:27:12;12.17;;;6.50;;
20621;SDS011;10470;42.670;23.354;2023-03-30T06:29:37;12.50;;;6.73;;
20621;SDS011;10470;42.670;23.354;2023-03-30T06:32:03;16.63;;;6.40;;
20621;SDS011;10470;42.670;23.354;2023-03-30T06:34:29;13.80;;;8.10;;
20621;SDS011;10470;42.670;23.354;2023-03-30T06:36:55;47.93;;;19.30;;
20621;SDS011;10470;42.670;23.354;2023-03-30T06:39:20;29.57;;;13.10;;
20621;SDS011;10470;42.670;23.354;2023-03-30T06:41:46;18.37;;;9.23;;
20621;SDS011;10470;42.670;23.354;2023-03-30T06:44:11;17.53;;;9.40;;
20621;SDS011;10470;42.670;23.354;2023-03-30T06:46:39;16.00;;;8.90;;
20621;SDS011;10470;42.670;23.354;2023-03-30T06:49:05;15.03;;;9.13;;
20621;SDS011;10470;42.670;23.354;2023-03-30T06:51:31;13.40;;;9.00;;
20621;SDS011;10470;42.670;23.354;2023-03-30T06:53:59;12.60;;;8.57;;
20621;SDS011;10470;42.670;23.354;2023-03-30T06:56:25;13.77;;;7.87;;
20621;SDS011;10470;42.670;23.354;2023-03-30T06:58:51;12.77;;;8.00;;
20621;SDS011;10470;42.670;23.354;2023-03-30T07:01:16;12.27;;;7.60;;
20621;SDS011;10470;42.670;23.354;2023-03-30T07:03:42;11.07;;;6.40;;
20621;SDS011;10470;42.670;23.354;2023-03-30T07:06:09;8.23;;;6.23;;
20621;SDS011;10470;42.670;23.354;2023-03-30T07:08:35;9.40;;;6.20;;
20621;SDS011;10470;42.670;23.354;2023-03-30T07:11:01;8.30;;;6.10;;
20621;SDS011;10470;42.670;23.354;2023-03-30T07:13:28;16.03;;;8.40;;
20621;SDS011;10470;42.670;23.354;2023-03-30T07:15:53;10.50;;;6.80;;
20621;SDS011;10470;42.670;23.354;2023-03-30T07:18:19;13.20;;;6.90;;
20621;SDS011;10470;42.670;23.354;2023-03-30T07:20:44;14.67;;;7.00;;
20621;SDS011;10470;42.670;23.354;2023-03-30T07:23:10;12.47;;;6.70;;
20621;SDS011;10470;42.670;23.354;2023-03-30T07:25:37;12.97;;;7.20;;
20621;SDS011;10470;42.670;23.354;2023-03-30T07:28:03;17.23;;;11.73;;
20621;SDS011;10470;42.670;23.354;2023-03-30T07:30:33;12.63;;;7.80;;
20621;SDS011;10470;42.670;23.354;2023-03-30T07:32:59;18.73;;;6.87;;
20621;SDS011;10470;42.670;23.354;2023-03-30T07:35:25;13.70;;;8.17;;
20621;SDS011;10470;42.670;23.354;2023-03-30T07:37:51;11.77;;;7.53;;
20621;SDS011;10470;42.670;23.354;2023-03-30T07:40:16;10.13;;;7.00;;
20621;SDS011;10470;42.670;23.354;2023-03-30T07:42:43;9.17;;;6.33;;
20621;SDS011;10470;42.670;23.354;2023-03-30T07:45:08;7.73;;;5.87;;
20621;SDS011;10470;42.670;23.354;2023-03-30T07:47:34;13.23;;;6.67;;
20621;SDS011;10470;42.670;23.354;2023-03-30T07:50:00;10.00;;;6.67;;
20621;SDS011;10470;42.670;23.354;2023-03-30T07:52:26;11.43;;;7.13;;
20621;SDS011;10470;42.670;23.354;2023-03-30T07:54:52;12.97;;;6.90;;
20621;SDS011;10470;42.670;23.354;2023-03-30T07:57:19;12.33;;;6.80;;
20621;SDS011;10470;42.670;23.354;2023-03-30T07:59:45;8.90;;;5.97;;
20621;SDS011;10470;42.670;23.354;2023-03-30T08:02:12;14.17;;;6.50;;
20621;SDS011;10470;42.670;23.354;2023-03-30T08:04:38;9.37;;;5.97;;
20621;SDS011;10470;42.670;23.354;2023-03-30T08:07:04;9.00;;;5.90;;
20621;SDS011;10470;42.670;23.354;2023-03-30T08:09:29;9.00;;;6.53;;
20621;SDS011;10470;42.670;23.354;2023-03-30T08:11:55;11.10;;;7.63;;
20621;SDS011;10470;42.670;23.354;2023-03-30T08:14:21;8.80;;;6.07;;
20621;SDS011;10470;42.670;23.354;2023-03-30T08:16:48;10.07;;;6.23;;
20621;SDS011;10470;42.670;23.354;2023-03-30T08:19:14;9.80;;;5.80;;
20621;SDS011;10470;42.670;23.354;2023-03-30T08:21:39;8.53;;;5.70;;
20621;SDS011;10470;42.670;23.354;2023-03-30T08:24:05;12.77;;;6.07;;
20621;SDS011;10470;42.670;23.354;2023-03-30T08:26:31;11.23;;;6.10;;
20621;SDS011;10470;42.670;23.354;2023-03-30T08:28:56;8.63;;;5.90;;
20621;SDS011;10470;42.670;23.354;2023-03-30T08:31:22;9.77;;;5.30;;
20621;SDS011;10470;42.670;23.354;2023-03-30T08:33:48;9.27;;;5.73;;
20621;SDS011;10470;42.670;23.354;2023-03-30T08:36:13;10.60;;;5.80;;
20621;SDS011;10470;42.670;23.354;2023-03-30T08:38:40;10.50;;;5.50;;
20621;SDS011;10470;42.670;23.354;2023-03-30T08:41:15;8.37;;;5.23;;
20621;SDS011;10470;42.670;23.354;2023-03-30T08:43:57;7.83;;;5.87;;
20621;SDS011;10470;42.670;23.354;2023-03-30T08:46:25;8.37;;;5.80;;
20621;SDS011;10470;42.670;23.354;2023-03-30T08:48:53;8.87;;;6.00;;
20621;SDS011;10470;42.670;23.354;2023-03-30T08:53:51;7.87;;;5.80;;
20621;SDS011;10470;42.670;23.354;2023-03-30T08:56:26;8.27;;;5.63;;
20621;SDS011;10470;42.670;23.354;2023-03-30T09:04:47;8.20;;;5.23;;
20621;SDS011;10470;42.670;23.354;2023-03-30T09:07:28;8.87;;;5.03;;
20621;SDS011;10470;42.670;23.354;2023-03-30T09:09:57;10.37;;;6.57;;
20621;SDS011;10470;42.670;23.354;2023-03-30T09:12:44;12.47;;;7.10;;
20621;SDS011;10470;42.670;23.354;2023-03-30T09:17:44;14.07;;;7.47;;
20621;SDS011;10470;42.670;23.354;2023-03-30T09:20:17;8.00;;;5.57;;
20621;SDS011;10470;42.670;23.354;2023-03-30T09:22:46;13.70;;;6.10;;
20621;SDS011;10470;42.670;23.354;2023-03-30T09:25:18;9.57;;;5.40;;
20621;SDS011;10470;42.670;23.354;2023-03-30T09:28:03;10.97;;;5.83;;
20621;SDS011;10470;42.670;23.354;2023-03-30T09:30:47;10.17;;;5.77;;
20621;SDS011;10470;42.670;23.354;2023-03-30T09:38:45;12.07;;;5.20;;
20621;SDS011;10470;42.670;23.354;2023-03-30T09:43:55;6.47;;;4.10;;
20621;SDS011;10470;42.670;23.354;2023-03-30T09:46:23;5.97;;;3.90;;
20621;SDS011;10470;42.670;23.354;2023-03-30T09:48:49;4.40;;;3.37;;
20621;SDS011;10470;42.670;23.354;2023-03-30T09:51:25;4.27;;;2.23;;
20621;SDS011;10470;42.670;23.354;2023-03-30T09:54:00;3.10;;;2.00;;
20621;SDS011;10470;42.670;23.354;2023-03-30T09:56:35;2.70;;;1.80;;
20621;SDS011;10470;42.670;23.354;2023-03-30T09:59:29;2.07;;;1.90;;
20621;SDS011;10470;42.670;23.354;2023-03-30T10:02:15;3.70;;;1.90;;
20621;SDS011;10470;42.670;23.354;2023-03-30T10:09:55;3.43;;;2.63;;
20621;SDS011;10470;42.670;23.354;2023-03-30T10:12:23;4.23;;;2.60;;
20621;SDS011;10470;42.670;23.354;2023-03-30T10:14:53;2.93;;;2.23;;
20621;SDS011;10470;42.670;23.354;2023-03-30T10:17:23;2.93;;;2.00;;
20621;SDS011;10470;42.670;23.354;2023-03-30T10:20:12;3.80;;;2.37;;
20621;SDS011;10470;42.670;23.354;2023-03-30T10:22:53;2.63;;;2.20;;
20621;SDS011;10470;42.670;23.354;2023-03-30T10:25:28;3.47;;;1.93;;
20621;SDS011;10470;42.670;23.354;2023-03-30T10:27:59;3.97;;;2.43;;
20621;SDS011;10470;42.670;23.354;2023-03-30T10:30:27;4.03;;;2.47;;
20621;SDS011;10470;42.670;23.354;2023-03-30T10:32:54;2.30;;;2.00;;
20621;SDS011;10470;42.670;23.354;2023-03-30T10:35:23;2.93;;;2.10;;
20621;SDS011;10470;42.670;23.354;2023-03-30T10:37:52;2.93;;;2.00;;
20621;SDS011;10470;42.670;23.354;2023-03-30T10:40:30;3.27;;;2.03;;
20621;SDS011;10470;42.670;23.354;2023-03-30T10:43:01;2.50;;;2.27;;
20621;SDS011;10470;42.670;23.354;2023-03-30T10:58:34;2.93;;;2.40;;
20621;SDS011;10470;42.670;23.354;2023-03-30T11:03:50;2.87;;;2.23;;
20621;SDS011;10470;42.670;23.354;2023-03-30T11:06:25;2.53;;;2.23;;
20621;SDS011;10470;42.670;23.354;2023-03-30T11:08:55;3.63;;;2.60;;
20621;SDS011;10470;42.670;23.354;2023-03-30T11:11:44;2.53;;;2.23;;
20621;SDS011;10470;42.670;23.354;2023-03-30T11:14:15;6.50;;;2.60;;
20621;SDS011;10470;42.670;23.354;2023-03-30T11:16:56;3.60;;;2.97;;
20621;SDS011;10470;42.670;23.354;2023-03-30T11:19:32;2.83;;;2.27;;
20621;SDS011;10470;42.670;23.354;2023-03-30T11:22:22;2.33;;;1.90;;
20621;SDS011;10470;42.670;23.354;2023-03-30T11:24:57;3.37;;;2.33;;
20621;SDS011;10470;42.670;23.354;2023-03-30T11:27:27;5.10;;;2.73;;
20621;SDS011;10470;42.670;23.354;2023-03-30T11:30:17;5.63;;;3.50;;
20621;SDS011;10470;42.670;23.354;2023-03-30T11:32:52;4.23;;;2.00;;
20621;SDS011;10470;42.670;23.354;2023-03-30T11:41:00;4.83;;;3.17;;
20621;SDS011;10470;42.670;23.354;2023-03-30T11:43:34;2.70;;;2.13;;
20621;SDS011;10470;42.670;23.354;2023-03-30T11:54:06;3.67;;;2.50;;
20621;SDS011;10470;42.670;23.354;2023-03-30T11:56:59;2.63;;;2.40;;
20621;SDS011;10470;42.670;23.354;2023-03-30T12:02:19;4.47;;;2.50;;
20621;SDS011;10470;42.670;23.354;2023-03-30T12:04:54;2.30;;;2.10;;
20621;SDS011;10470;42.670;23.354;2023-03-30T12:10:10;2.83;;;2.10;;
20621;SDS011;10470;42.670;23.354;2023-03-30T12:12:42;4.80;;;2.93;;
20621;SDS011;10470;42.670;23.354;2023-03-30T12:17:51;4.33;;;2.33;;
20621;SDS011;10470;42.670;23.354;2023-03-30T12:23:14;2.80;;;1.93;;
20621;SDS011;10470;42.670;23.354;2023-03-30T12:28:43;3.37;;;1.80;;
20621;SDS011;10470;42.670;23.354;2023-03-30T12:31:11;2.97;;;2.03;;
20621;SDS011;10470;42.670;23.354;2023-03-30T12:36:21;3.63;;;2.53;;
20621;SDS011;10470;42.670;23.354;2023-03-30T12:39:02;5.50;;;3.60;;
20621;SDS011;10470;42.670;23.354;2023-03-30T12:41:45;2.60;;;2.00;;
20621;SDS011;10470;42.670;23.354;2023-03-30T12:49:29;3.30;;;1.80;;
20621;SDS011;10470;42.670;23.354;2023-03-30T12:57:26;1.80;;;1.50;;
20621;SDS011;10470;42.670;23.354;2023-03-30T13:02:58;2.60;;;2.07;;
20621;SDS011;10470;42.670;23.354;2023-03-30T13:05:34;3.13;;;2.00;;
20621;SDS011;10470;42.670;23.354;2023-03-30T13:08:05;3.17;;;2.13;;
20621;SDS011;10470;42.670;23.354;2023-03-30T13:10:35;3.70;;;1.97;;
20621;SDS011;10470;42.670;23.354;2023-03-30T13:13:04;2.67;;;1.90;;
20621;SDS011;10470;42.670;23.354;2023-03-30T13:25:50;3.47;;;3.00;;
20621;SDS011;10470;42.670;23.354;2023-03-30T13:28:34;3.27;;;2.00;;
20621;SDS011;10470;42.670;23.354;2023-03-30T13:34:04;4.30;;;2.00;;
20621;SDS011;10470;42.670;23.354;2023-03-30T13:39:51;2.33;;;1.80;;
20621;SDS011;10470;42.670;23.354;2023-03-30T13:48:29;2.77;;;1.70;;
20621;SDS011;10470;42.670;23.354;2023-03-30T13:51:04;3.20;;;1.80;;
20621;SDS011;10470;42.670;23.354;2023-03-30T13:53:37;3.00;;;1.90;;
20621;SDS011;10470;42.670;23.354;2023-03-30T13:56:08;3.93;;;1.80;;
20621;SDS011;10470;42.670;23.354;2023-03-30T13:58:35;1.90;;;1.60;;
20621;SDS011;10470;42.670;23.354;2023-03-30T14:01:06;4.23;;;1.70;;
20621;SDS011;10470;42.670;23.354;2023-03-30T14:03:40;3.77;;;2.10;;
20621;SDS011;10470;42.670;23.354;2023-03-30T14:08:39;2.10;;;1.50;;
20621;SDS011;10470;42.670;23.354;2023-03-30T14:16:57;1.60;;;1.50;;
20621;SDS011;10470;42.670;23.354;2023-03-30T14:19:35;3.27;;;1.60;;
20621;SDS011;10470;42.670;23.354;2023-03-30T14:22:08;2.70;;;1.77;;
20621;SDS011;10470;42.670;23.354;2023-03-30T14:24:40;2.83;;;1.80;;
20621;SDS011;10470;42.670;23.354;2023-03-30T14:27:20;3.50;;;1.93;;
20621;SDS011;10470;42.670;23.354;2023-03-30T14:29:47;5.23;;;1.60;;
20621;SDS011;10470;42.670;23.354;2023-03-30T14:32:15;1.87;;;1.53;;
20621;SDS011;10470;42.670;23.354;2023-03-30T14:34:49;1.97;;;1.50;;
20621;SDS011;10470;42.670;23.354;2023-03-30T14:37:16;2.47;;;1.50;;
20621;SDS011;10470;42.670;23.354;2023-03-30T14:39:45;3.20;;;1.50;;
20621;SDS011;10470;42.670;23.354;2023-03-30T14:42:16;2.10;;;1.43;;
20621;SDS011;10470;42.670;23.354;2023-03-30T14:44:44;2.67;;;1.70;;
20621;SDS011;10470;42.670;23.354;2023-03-30T14:47:13;2.00;;;1.60;;
20621;SDS011;10470;42.670;23.354;2023-03-30T14:49:40;4.83;;;1.90;;
20621;SDS011;10470;42.670;23.354;2023-03-30T14:54:44;3.93;;;1.70;;
20621;SDS011;10470;42.670;23.354;2023-03-30T14:57:11;2.70;;;1.90;;
20621;SDS011;10470;42.670;23.354;2023-03-30T14:59:42;2.73;;;1.40;;
20621;SDS011;10470;42.670;23.354;2023-03-30T15:02:16;2.63;;;1.67;;
20621;SDS011;10470;42.670;23.354;2023-03-30T15:04:42;3.17;;;1.50;;
20621;SDS011;10470;42.670;23.354;2023-03-30T15:07:08;3.13;;;2.10;;
20621;SDS011;10470;42.670;23.354;2023-03-30T15:09:38;3.43;;;1.70;;
20621;SDS011;10470;42.670;23.354;2023-03-30T15:12:04;3.77;;;1.70;;
20621;SDS011;10470;42.670;23.354;2023-03-30T15:14:34;2.53;;;1.43;;
20621;SDS011;10470;42.670;23.354;2023-03-30T15:17:12;3.17;;;1.67;;
20621;SDS011;10470;42.670;23.354;2023-03-30T15:19:43;3.47;;;2.07;;
20621;SDS011;10470;42.670;23.354;2023-03-30T15:22:18;5.23;;;2.20;;
20621;SDS011;10470;42.670;23.354;2023-03-30T15:24:53;4.60;;;2.00;;
20621;SDS011;10470;42.670;23.354;2023-03-30T15:27:22;5.40;;;3.33;;
20621;SDS011;10470;42.670;23.354;2023-03-30T15:29:48;3.73;;;2.90;;
20621;SDS011;10470;42.670;23.354;2023-03-30T15:32:18;6.10;;;4.20;;
20621;SDS011;10470;42.670;23.354;2023-03-30T15:34:59;3.00;;;2.03;;
20621;SDS011;10470;42.670;23.354;2023-03-30T15:37:28;18.97;;;8.27;;
20621;SDS011;10470;42.670;23.354;2023-03-30T15:39:54;12.33;;;6.70;;
20621;SDS011;10470;42.670;23.354;2023-03-30T15:42:30;6.53;;;4.23;;
20621;SDS011;10470;42.670;23.354;2023-03-30T15:45:07;2.60;;;2.10;;
20621;SDS011;10470;42.670;23.354;2023-03-30T15:47:34;4.63;;;2.07;;
20621;SDS011;10470;42.670;23.354;2023-03-30T15:50:00;6.17;;;2.40;;
20621;SDS011;10470;42.670;23.354;2023-03-30T15:52:33;4.60;;;2.53;;
20621;SDS011;10470;42.670;23.354;2023-03-30T15:55:01;2.70;;;2.00;;
20621;SDS011;10470;42.670;23.354;2023-03-30T15:57:32;4.47;;;2.00;;
20621;SDS011;10470;42.670;23.354;2023-03-30T15:59:59;4.03;;;2.07;;
20621;SDS011;10470;42.670;23.354;2023-03-30T16:05:22;2.67;;;2.00;;
20621;SDS011;10470;42.670;23.354;2023-03-30T16:07:52;5.60;;;2.57;;
20621;SDS011;10470;42.670;23.354;2023-03-30T16:10:20;4.73;;;2.27;;
20621;SDS011;10470;42.670;23.354;2023-03-30T16:12:48;5.83;;;2.47;;
20621;SDS011;10470;42.670;23.354;2023-03-30T16:15:17;7.17;;;2.93;;
20621;SDS011;10470;42.670;23.354;2023-03-30T16:17:47;6.93;;;2.20;;
20621;SDS011;10470;42.670;23.354;2023-03-30T16:22:43;7.23;;;2.87;;
20621;SDS011;10470;42.670;23.354;2023-03-30T16:25:11;7.00;;;3.10;;
20621;SDS011;10470;42.670;23.354;2023-03-30T16:27:37;10.50;;;3.00;;
20621;SDS011;10470;42.670;23.354;2023-03-30T16:30:13;4.97;;;3.53;;
20621;SDS011;10470;42.670;23.354;2023-03-30T16:32:42;6.33;;;3.27;;
20621;SDS011;10470;42.670;23.354;2023-03-30T16:35:08;5.90;;;3.03;;
20621;SDS011;10470;42.670;23.354;2023-03-30T16:37:33;3.60;;;2.67;;
20621;SDS011;10470;42.670;23.354;2023-03-30T16:39:59;5.27;;;2.63;;
20621;SDS011;10470;42.670;23.354;2023-03-30T16:42:25;7.10;;;4.10;;
20621;SDS011;10470;42.670;23.354;2023-03-30T16:44:53;7.63;;;3.93;;
20621;SDS011;10470;42.670;23.354;2023-03-30T16:47:18;11.00;;;4.27;;
20621;SDS011;10470;42.670;23.354;2023-03-30T16:49:46;8.73;;;3.80;;
20621;SDS011;10470;42.670;23.354;2023-03-30T16:52:12;9.00;;;3.90;;
20621;SDS011;10470;42.670;23.354;2023-03-30T16:54:38;7.40;;;3.90;;
20621;SDS011;10470;42.670;23.354;2023-03-30T16:57:03;5.43;;;3.70;;
20621;SDS011;10470;42.670;23.354;2023-03-30T16:59:29;10.20;;;4.67;;
20621;SDS011;10470;42.670;23.354;2023-03-30T17:01:55;8.70;;;4.83;;
20621;SDS011;10470;42.670;23.354;2023-03-30T17:04:21;13.33;;;5.37;;
20621;SDS011;10470;42.670;23.354;2023-03-30T17:06:47;13.47;;;5.63;;
20621;SDS011;10470;42.670;23.354;2023-03-30T17:09:17;12.13;;;5.90;;
20621;SDS011;10470;42.670;23.354;2023-03-30T17:11:46;12.13;;;6.83;;
20621;SDS011;10470;42.670;23.354;2023-03-30T17:14:14;11.47;;;5.67;;
20621;SDS011;10470;42.670;23.354;2023-03-30T17:16:40;13.77;;;6.30;;
20621;SDS011;10470;42.670;23.354;2023-03-30T17:19:09;12.33;;;5.90;;
20621;SDS011;10470;42.670;23.354;2023-03-30T17:21:36;10.40;;;6.10;;
20621;SDS011;10470;42.670;23.354;2023-03-30T17:24:02;9.67;;;6.13;;
20621;SDS011;10470;42.670;23.354;2023-03-30T17:26:27;14.20;;;6.93;;
20621;SDS011;10470;42.670;23.354;2023-03-30T17:28:53;17.70;;;8.97;;
20621;SDS011;10470;42.670;23.354;2023-03-30T17:31:19;17.70;;;8.47;;
20621;SDS011;10470;42.670;23.354;2023-03-30T17:33:46;21.30;;;7.67;;